Time;durP1;ratioP1;P1;durP2;ratioP2;P2;SDS_P1;SDS_P2;PMS_P1;PMS_P2;Temp;Humidity;BMP_temperature;BMP_pressure;BME280_temperature;BME280_humidity;BME280_pressure;Samples;Min_cycle;Max_cycle;Signal;HPM_P1;HPM_P2
2023/07/19 00:00:09;;;;;;;3.17;2.77;;;;;;;;;;5032269;28;20551;-54
2023/07/19 00:02:36;;;;;;;3.20;2.67;;;;;;;;;;5032240;28;20534;-56
2023/07/19 00:05:03;;;;;;;3.30;2.80;;;;;;;;;;5032165;28;20447;-56
2023/07/19 00:07:30;;;;;;;3.13;2.83;;;;;;;;;;5032019;28;20499;-59
2023/07/19 00:09:57;;;;;;;3.10;2.43;;;;;;;;;;5032040;28;21014;-57
2023/07/19 00:12:24;;;;;;;3.40;3.10;;;;;;;;;;5032240;28;20874;-56
2023/07/19 00:14:50;;;;;;;3.70;3.23;;;;;;;;;;5034699;28;20581;-56
2023/07/19 00:17:19;;;;;;;2.70;2.50;;;;;;;;;;5035632;28;20457;-58
2023/07/19 00:19:46;;;;;;;2.80;2.60;;;;;;;;;;5035608;28;20857;-57
2023/07/19 00:22:13;;;;;;;2.23;2.10;;;;;;;;;;5035360;28;20477;-57
2023/07/19 00:24:40;;;;;;;8.10;3.47;;;;;;;;;;5035351;28;20974;-57
2023/07/19 00:27:07;;;;;;;6.13;3.27;;;;;;;;;;5035566;28;20541;-56
2023/07/19 00:29:34;;;;;;;3.83;3.07;;;;;;;;;;5035436;28;20443;-57
2023/07/19 00:32:01;;;;;;;3.53;3.30;;;;;;;;;;5035286;28;20545;-57
2023/07/19 00:34:29;;;;;;;3.83;3.00;;;;;;;;;;5035211;28;20486;-57
2023/07/19 00:36:56;;;;;;;3.00;2.73;;;;;;;;;;5035150;28;20808;-56
2023/07/19 00:39:23;;;;;;;2.90;2.70;;;;;;;;;;5035327;28;20542;-57
2023/07/19 00:41:50;;;;;;;2.90;2.70;;;;;;;;;;5035229;28;20456;-57
2023/07/19 00:44:17;;;;;;;3.33;3.03;;;;;;;;;;5035177;28;20530;-57
2023/07/19 00:46:44;;;;;;;5.07;2.70;;;;;;;;;;5035090;28;20447;-56
2023/07/19 00:49:11;;;;;;;2.77;2.27;;;;;;;;;;5035415;28;20446;-55
2023/07/19 00:51:40;;;;;;;2.70;2.50;;;;;;;;;;5034877;28;20935;-54
2023/07/19 00:54:09;;;;;;;4.20;2.80;;;;;;;;;;5034916;28;20511;-56
2023/07/19 00:56:36;;;;;;;3.83;3.53;;;;;;;;;;5034754;28;20486;-55
2023/07/19 00:59:03;;;;;;;3.27;3.07;;;;;;;;;;5034933;28;20533;-56
2023/07/19 01:01:30;;;;;;;3.70;3.40;;;;;;;;;;5034585;28;20461;-57
2023/07/19 01:03:57;;;;;;;2.90;2.70;;;;;;;;;;5034575;28;20450;-57
2023/07/19 01:06:24;;;;;;;3.10;2.70;;;;;;;;;;5034864;28;20538;-57
2023/07/19 01:08:53;;;;;;;6.63;3.67;;;;;;;;;;5034751;28;20508;-57
2023/07/19 01:11:20;;;;;;;3.13;2.83;;;;;;;;;;5034662;28;20454;-55
2023/07/19 01:13:53;;;;;;;3.30;3.00;;;;;;;;;;5034536;28;20785;-57
2023/07/19 01:16:20;;;;;;;3.10;2.90;;;;;;;;;;5034359;28;20451;-56
2023/07/19 01:18:47;;;;;;;3.80;2.90;;;;;;;;;;5034631;28;20455;-58
2023/07/19 01:21:14;;;;;;;3.53;3.20;;;;;;;;;;5034579;28;20895;-56
2023/07/19 01:23:42;;;;;;;4.57;3.53;;;;;;;;;;5034407;28;20457;-57
2023/07/19 01:26:09;;;;;;;3.77;3.37;;;;;;;;;;5034031;28;20549;-57
2023/07/19 01:28:37;;;;;;;3.27;2.97;;;;;;;;;;5034210;28;20450;-57
2023/07/19 01:31:05;;;;;;;3.00;2.77;;;;;;;;;;5034002;28;20451;-57
2023/07/19 01:33:32;;;;;;;2.97;2.67;;;;;;;;;;5034222;28;20455;-57
2023/07/19 01:35:59;;;;;;;8.70;3.00;;;;;;;;;;5033835;28;21096;-56
2023/07/19 01:38:26;;;;;;;3.67;3.37;;;;;;;;;;5034012;28;20458;-57
2023/07/19 01:40:54;;;;;;;3.50;3.20;;;;;;;;;;5033923;28;20456;-57
2023/07/19 01:43:21;;;;;;;3.20;3.00;;;;;;;;;;5033820;28;20487;-59
2023/07/19 01:45:48;;;;;;;3.97;3.33;;;;;;;;;;5034067;28;20476;-56
2023/07/19 01:48:15;;;;;;;3.37;2.80;;;;;;;;;;5034049;28;20450;-57
2023/07/19 01:50:41;;;;;;;3.20;3.00;;;;;;;;;;5033823;28;20449;-58
2023/07/19 01:53:08;;;;;;;5.90;3.27;;;;;;;;;;5033754;28;20538;-57
2023/07/19 01:55:35;;;;;;;3.27;2.97;;;;;;;;;;5033618;28;20514;-56
2023/07/19 01:58:04;;;;;;;3.40;3.20;;;;;;;;;;5033413;28;21005;-57
2023/07/19 02:00:31;;;;;;;4.50;3.40;;;;;;;;;;5033787;28;20542;-57
2023/07/19 02:02:57;;;;;;;3.60;3.30;;;;;;;;;;5033680;28;20454;-56
2023/07/19 02:05:24;;;;;;;3.77;3.40;;;;;;;;;;5033584;28;20563;-57
2023/07/19 02:07:51;;;;;;;3.60;3.37;;;;;;;;;;5033580;28;20882;-56
2023/07/19 02:10:18;;;;;;;3.63;3.00;;;;;;;;;;5033430;28;20908;-57
2023/07/19 02:12:45;;;;;;;3.83;3.53;;;;;;;;;;5033275;28;20452;-56
2023/07/19 02:15:14;;;;;;;3.47;3.23;;;;;;;;;;5033393;28;20489;-55
2023/07/19 02:17:40;;;;;;;4.57;4.13;;;;;;;;;;5033336;28;20447;-56
2023/07/19 02:20:08;;;;;;;3.50;3.00;;;;;;;;;;5033305;28;20456;-57
2023/07/19 02:22:35;;;;;;;3.20;3.00;;;;;;;;;;5033018;28;21014;-56
2023/07/19 02:25:02;;;;;;;4.93;3.47;;;;;;;;;;5033024;28;20962;-56
2023/07/19 02:27:29;;;;;;;3.73;3.30;;;;;;;;;;5032963;28;20533;-57
2023/07/19 02:29:56;;;;;;;3.33;3.03;;;;;;;;;;5033226;28;20888;-57
2023/07/19 02:32:24;;;;;;;3.70;3.40;;;;;;;;;;5033143;28;20859;-55
2023/07/19 02:34:51;;;;;;;3.37;3.10;;;;;;;;;;5032970;28;20474;-57
2023/07/19 02:37:18;;;;;;;3.63;3.33;;;;;;;;;;5032420;28;20464;-58
2023/07/19 02:39:45;;;;;;;3.40;3.10;;;;;;;;;;5032838;28;20835;-57
2023/07/19 02:42:12;;;;;;;3.37;3.17;;;;;;;;;;5033006;28;20446;-55
2023/07/19 02:44:39;;;;;;;3.37;3.07;;;;;;;;;;5032950;28;20450;-59
2023/07/19 02:47:06;;;;;;;3.43;3.23;;;;;;;;;;5032736;28;20481;-56
2023/07/19 02:49:34;;;;;;;3.90;3.60;;;;;;;;;;5032845;28;20481;-57
2023/07/19 02:52:01;;;;;;;3.50;3.30;;;;;;;;;;5032664;28;20446;-56
2023/07/19 02:54:28;;;;;;;3.87;3.57;;;;;;;;;;5032702;28;20482;-56
2023/07/19 02:56:55;;;;;;;3.33;3.03;;;;;;;;;;5032682;28;20482;-57
2023/07/19 02:59:22;;;;;;;3.73;3.40;;;;;;;;;;5032702;28;20450;-57
2023/07/19 03:01:49;;;;;;;4.00;3.57;;;;;;;;;;5032770;28;20493;-57
2023/07/19 03:04:16;;;;;;;3.20;3.00;;;;;;;;;;5032776;28;20455;-56
2023/07/19 03:06:44;;;;;;;2.83;2.63;;;;;;;;;;5032676;28;20454;-57
2023/07/19 03:09:13;;;;;;;4.70;3.97;;;;;;;;;;5032765;28;20461;-57
2023/07/19 03:11:41;;;;;;;3.97;3.67;;;;;;;;;;5032714;28;20860;-57
2023/07/19 03:14:07;;;;;;;4.63;3.80;;;;;;;;;;5032687;28;20447;-56
2023/07/19 03:16:36;;;;;;;3.60;3.30;;;;;;;;;;5032458;28;20492;-56
2023/07/19 03:19:03;;;;;;;5.60;3.20;;;;;;;;;;5032523;28;20454;-57
2023/07/19 03:21:30;;;;;;;3.23;3.03;;;;;;;;;;5032291;28;20450;-55
2023/07/19 03:23:58;;;;;;;3.77;3.47;;;;;;;;;;5032631;28;20564;-57
2023/07/19 03:26:26;;;;;;;3.40;3.10;;;;;;;;;;5032568;28;20465;-56
2023/07/19 03:28:53;;;;;;;3.60;3.33;;;;;;;;;;5032448;28;20473;-56
2023/07/19 03:31:19;;;;;;;4.60;3.00;;;;;;;;;;5032461;28;20568;-56
2023/07/19 03:33:46;;;;;;;3.03;2.83;;;;;;;;;;5032380;28;20451;-56
2023/07/19 03:36:13;;;;;;;3.50;3.20;;;;;;;;;;5032412;28;20562;-57
2023/07/19 03:38:40;;;;;;;3.27;3.07;;;;;;;;;;5032403;28;20544;-57
2023/07/19 03:41:09;;;;;;;3.67;3.20;;;;;;;;;;5032348;28;20538;-57
2023/07/19 03:43:36;;;;;;;3.30;3.10;;;;;;;;;;5032245;28;20548;-57
2023/07/19 03:46:03;;;;;;;5.03;3.60;;;;;;;;;;5032289;28;20453;-57
2023/07/19 03:48:30;;;;;;;3.10;2.90;;;;;;;;;;5034546;28;20541;-57
2023/07/19 03:50:57;;;;;;;3.63;3.27;;;;;;;;;;5036158;28;20451;-56
2023/07/19 03:53:24;;;;;;;3.83;3.47;;;;;;;;;;5036100;28;20478;-59
2023/07/19 03:55:55;;;;;;;11.03;3.80;;;;;;;;;;5035813;28;20495;-56
2023/07/19 03:58:24;;;;;;;3.47;3.03;;;;;;;;;;5035924;28;20536;-57
2023/07/19 04:00:52;;;;;;;4.60;3.63;;;;;;;;;;5035774;28;20461;-56
2023/07/19 04:03:19;;;;;;;3.20;2.90;;;;;;;;;;5036032;28;20457;-57
2023/07/19 04:05:46;;;;;;;3.07;2.83;;;;;;;;;;5035945;28;20813;-57
2023/07/19 04:08:14;;;;;;;3.53;3.23;;;;;;;;;;5035822;28;20483;-57
2023/07/19 04:10:41;;;;;;;3.53;3.23;;;;;;;;;;5035759;28;20542;-55
2023/07/19 04:13:08;;;;;;;2.73;2.47;;;;;;;;;;5035683;28;20542;-57
2023/07/19 04:15:36;;;;;;;6.20;3.40;;;;;;;;;;5035983;28;20478;-57
2023/07/19 04:18:03;;;;;;;3.30;3.00;;;;;;;;;;5035631;28;20466;-56
2023/07/19 04:20:30;;;;;;;3.53;3.23;;;;;;;;;;5035612;28;20540;-55
2023/07/19 04:22:57;;;;;;;3.90;3.37;;;;;;;;;;5035563;28;20487;-56
2023/07/19 04:25:25;;;;;;;5.67;3.23;;;;;;;;;;5035459;28;20454;-56
2023/07/19 04:27:52;;;;;;;3.63;3.43;;;;;;;;;;5035352;28;20813;-56
2023/07/19 04:30:19;;;;;;;3.13;2.80;;;;;;;;;;5035184;28;20791;-56
2023/07/19 04:32:48;;;;;;;3.67;3.17;;;;;;;;;;5035331;28;20450;-57
2023/07/19 04:35:15;;;;;;;4.27;3.07;;;;;;;;;;5035309;28;20479;-56
2023/07/19 04:37:42;;;;;;;3.20;2.90;;;;;;;;;;5035188;28;20529;-57
2023/07/19 04:40:09;;;;;;;2.80;2.60;;;;;;;;;;5035208;28;20882;-57
2023/07/19 04:42:36;;;;;;;2.80;2.60;;;;;;;;;;5034946;28;20939;-57
2023/07/19 04:45:03;;;;;;;2.57;2.37;;;;;;;;;;5035145;28;20545;-57
2023/07/19 04:47:30;;;;;;;3.30;2.20;;;;;;;;;;5035027;28;20943;-57
2023/07/19 04:49:59;;;;;;;2.80;2.60;;;;;;;;;;5035054;28;20546;-56
2023/07/19 04:52:26;;;;;;;3.93;2.40;;;;;;;;;;5034974;28;20815;-57
2023/07/19 04:54:53;;;;;;;3.40;2.80;;;;;;;;;;5034907;28;20451;-57
2023/07/19 04:57:19;;;;;;;2.73;2.03;;;;;;;;;;5034476;28;20501;-57
2023/07/19 04:59:46;;;;;;;4.60;2.43;;;;;;;;;;5034368;28;20943;-57
2023/07/19 05:02:14;;;;;;;2.03;1.93;;;;;;;;;;5034813;28;20819;-55
2023/07/19 05:04:41;;;;;;;4.00;2.30;;;;;;;;;;5034748;28;20458;-57
2023/07/19 05:07:09;;;;;;;2.27;2.10;;;;;;;;;;5034786;28;20811;-57
2023/07/19 05:09:36;;;;;;;2.00;1.90;;;;;;;;;;5034560;28;20543;-56
2023/07/19 05:12:04;;;;;;;2.20;2.00;;;;;;;;;;5034446;28;20479;-56
2023/07/19 05:14:31;;;;;;;3.00;2.60;;;;;;;;;;5034615;28;20511;-56
2023/07/19 05:16:58;;;;;;;1.60;1.50;;;;;;;;;;5034563;28;20488;-56
2023/07/19 05:19:25;;;;;;;2.20;2.00;;;;;;;;;;5034539;28;20454;-54
2023/07/19 05:21:52;;;;;;;3.20;2.00;;;;;;;;;;5034469;28;20493;-56
2023/07/19 05:24:20;;;;;;;2.00;1.90;;;;;;;;;;5034176;28;20463;-57
2023/07/19 05:26:47;;;;;;;2.50;2.30;;;;;;;;;;5034498;28;20552;-57
2023/07/19 05:29:14;;;;;;;1.93;1.83;;;;;;;;;;5034641;28;20950;-59
2023/07/19 05:31:41;;;;;;;2.60;2.30;;;;;;;;;;5034220;28;20470;-56
2023/07/19 05:34:08;;;;;;;2.83;2.10;;;;;;;;;;5034127;28;20453;-57
2023/07/19 05:36:37;;;;;;;2.97;2.47;;;;;;;;;;5034030;28;20514;-57
2023/07/19 05:39:05;;;;;;;3.83;2.27;;;;;;;;;;5034035;28;20503;-57
2023/07/19 05:41:33;;;;;;;1.90;1.80;;;;;;;;;;5034197;28;20453;-57
2023/07/19 05:44:00;;;;;;;3.37;2.17;;;;;;;;;;5034054;28;20448;-57
2023/07/19 05:46:27;;;;;;;2.10;2.00;;;;;;;;;;5034050;28;20496;-57
2023/07/19 05:48:54;;;;;;;3.80;2.00;;;;;;;;;;5033907;28;20528;-57
2023/07/19 05:51:21;;;;;;;2.10;2.00;;;;;;;;;;5033758;28;20447;-57
2023/07/19 05:53:48;;;;;;;3.10;1.90;;;;;;;;;;5033983;28;20441;-56
2023/07/19 05:56:15;;;;;;;2.77;2.03;;;;;;;;;;5033626;28;20481;-56
2023/07/19 05:58:43;;;;;;;2.00;1.90;;;;;;;;;;5033810;28;20457;-58
2023/07/19 06:01:14;;;;;;;3.97;2.40;;;;;;;;;;5033684;28;20453;-57
2023/07/19 06:03:41;;;;;;;2.23;1.90;;;;;;;;;;5033717;28;20456;-57
2023/07/19 06:06:08;;;;;;;2.43;2.23;;;;;;;;;;5033442;28;20453;-57
2023/07/19 06:08:35;;;;;;;2.30;2.10;;;;;;;;;;5033714;28;20449;-56
2023/07/19 06:11:02;;;;;;;2.90;2.10;;;;;;;;;;5032721;28;20460;-58
2023/07/19 06:13:29;;;;;;;2.27;2.07;;;;;;;;;;5033470;28;20500;-57
2023/07/19 06:15:57;;;;;;;2.27;2.10;;;;;;;;;;5033503;28;20496;-56
2023/07/19 06:18:24;;;;;;;2.40;2.20;;;;;;;;;;5033325;28;20457;-56
2023/07/19 06:20:51;;;;;;;7.13;3.23;;;;;;;;;;5033599;28;20453;-56
2023/07/19 06:23:18;;;;;;;2.80;1.77;;;;;;;;;;5033475;28;20455;-57
2023/07/19 06:25:47;;;;;;;2.63;1.60;;;;;;;;;;5033374;28;20454;-57
2023/07/19 06:28:14;;;;;;;6.23;2.10;;;;;;;;;;5033188;28;20503;-58
2023/07/19 06:30:41;;;;;;;2.23;2.03;;;;;;;;;;5033203;28;21017;-57
2023/07/19 06:33:10;;;;;;;2.30;2.10;;;;;;;;;;5033139;28;20459;-57
2023/07/19 06:35:37;;;;;;;4.23;2.13;;;;;;;;;;5033268;28;20556;-56
2023/07/19 06:38:05;;;;;;;3.67;2.00;;;;;;;;;;5033244;28;20489;-57
2023/07/19 06:40:32;;;;;;;2.83;1.50;;;;;;;;;;5033082;28;20446;-58
2023/07/19 06:42:58;;;;;;;6.17;1.90;;;;;;;;;;5033010;28;20481;-56
2023/07/19 06:45:25;;;;;;;2.90;2.30;;;;;;;;;;5032916;28;20949;-58
2023/07/19 06:47:53;;;;;;;2.10;1.90;;;;;;;;;;5032775;28;20872;-57
2023/07/19 06:50:21;;;;;;;2.47;1.83;;;;;;;;;;5033052;28;20446;-57
2023/07/19 06:52:48;;;;;;;3.13;1.90;;;;;;;;;;5032937;28;20491;-58
2023/07/19 06:55:15;;;;;;;4.07;2.40;;;;;;;;;;5013318;28;20453;-57
2023/07/19 06:57:42;;;;;;;3.53;2.20;;;;;;;;;;5012645;28;20549;-56
2023/07/19 07:00:10;;;;;;;3.17;1.73;;;;;;;;;;5013088;28;20489;-57
2023/07/19 07:02:38;;;;;;;2.10;2.00;;;;;;;;;;5013190;28;20454;-56
2023/07/19 07:05:05;;;;;;;2.23;1.87;;;;;;;;;;5013063;28;20556;-59
2023/07/19 07:07:33;;;;;;;6.23;2.30;;;;;;;;;;5012862;28;20504;-58
2023/07/19 07:10:04;;;;;;;2.30;1.70;;;;;;;;;;5012858;28;20549;-59
2023/07/19 07:12:32;;;;;;;2.40;2.20;;;;;;;;;;5012856;28;20942;-59
2023/07/19 07:14:59;;;;;;;1.60;1.50;;;;;;;;;;5017508;28;20927;-59
2023/07/19 07:17:26;;;;;;;2.20;2.00;;;;;;;;;;5020666;28;20485;-54
2023/07/19 07:19:53;;;;;;;2.17;1.80;;;;;;;;;;5022866;28;20525;-55
2023/07/19 07:22:21;;;;;;;2.63;2.10;;;;;;;;;;5021020;28;21016;-56
2023/07/19 07:24:49;;;;;;;2.40;2.20;;;;;;;;;;5025592;28;20453;-56
2023/07/19 07:27:16;;;;;;;5.00;2.30;;;;;;;;;;5025805;28;20452;-58
2023/07/19 07:29:43;;;;;;;4.33;1.93;;;;;;;;;;5027463;28;20572;-58
2023/07/19 07:32:11;;;;;;;2.97;2.40;;;;;;;;;;5033862;28;20507;-52
2023/07/19 07:34:39;;;;;;;2.17;2.00;;;;;;;;;;5024496;28;20450;-53
2023/07/19 07:37:06;;;;;;;2.33;2.10;;;;;;;;;;5016492;28;20489;-54
2023/07/19 07:39:35;;;;;;;2.43;2.23;;;;;;;;;;5016441;28;20485;-59
2023/07/19 07:42:03;;;;;;;2.83;2.50;;;;;;;;;;5016342;28;21042;-59
2023/07/19 07:44:31;;;;;;;2.27;2.10;;;;;;;;;;5016485;28;20457;-59
2023/07/19 07:46:57;;;;;;;2.40;2.20;;;;;;;;;;5016628;28;20538;-59
2023/07/19 07:49:24;;;;;;;1.77;1.67;;;;;;;;;;5016525;28;20493;-59
2023/07/19 07:51:52;;;;;;;2.07;1.87;;;;;;;;;;5016170;28;20451;-60
2023/07/19 07:54:20;;;;;;;2.03;1.80;;;;;;;;;;5016116;28;20961;-59
2023/07/19 07:56:47;;;;;;;2.20;2.00;;;;;;;;;;5015828;28;21079;-59
2023/07/19 07:59:16;;;;;;;5.13;2.63;;;;;;;;;;5021306;28;20520;-59
2023/07/19 08:01:42;;;;;;;3.13;2.17;;;;;;;;;;5025794;28;20788;-57
2023/07/19 08:04:10;;;;;;;2.40;1.63;;;;;;;;;;5024557;28;20545;-57
2023/07/19 08:06:37;;;;;;;2.80;2.23;;;;;;;;;;5026190;28;20480;-55
2023/07/19 08:09:04;;;;;;;2.30;2.10;;;;;;;;;;5023452;28;20814;-58
2023/07/19 08:11:32;;;;;;;1.83;1.70;;;;;;;;;;5024136;28;20496;-57
2023/07/19 08:13:59;;;;;;;2.83;2.07;;;;;;;;;;5017997;28;20529;-56
2023/07/19 08:16:27;;;;;;;2.10;1.90;;;;;;;;;;5015948;28;20555;-56
2023/07/19 08:18:54;;;;;;;2.50;1.80;;;;;;;;;;5016094;28;20545;-59
2023/07/19 08:21:21;;;;;;;2.37;2.17;;;;;;;;;;5015592;28;20478;-57
2023/07/19 08:23:53;;;;;;;2.80;2.23;;;;;;;;;;5034065;28;20473;-57
2023/07/19 08:26:20;;;;;;;2.13;1.93;;;;;;;;;;5032821;28;20457;-56
2023/07/19 08:28:47;;;;;;;1.70;1.60;;;;;;;;;;5015344;28;20473;-58
2023/07/19 08:31:14;;;;;;;1.97;1.70;;;;;;;;;;5015304;28;20443;-58
2023/07/19 08:33:42;;;;;;;3.93;2.47;;;;;;;;;;5014990;28;20475;-59
2023/07/19 08:36:09;;;;;;;2.60;2.20;;;;;;;;;;5014974;28;20554;-57
2023/07/19 08:38:36;;;;;;;3.87;2.30;;;;;;;;;;5015531;28;20488;-57
2023/07/19 08:41:05;;;;;;;2.20;2.00;;;;;;;;;;5015258;28;20509;-57
2023/07/19 08:43:33;;;;;;;4.00;2.13;;;;;;;;;;5015177;28;20492;-56
2023/07/19 08:46:01;;;;;;;2.47;2.03;;;;;;;;;;5014881;28;20994;-51
2023/07/19 08:48:29;;;;;;;2.90;2.07;;;;;;;;;;5013936;28;20460;-59
2023/07/19 08:50:58;;;;;;;2.00;1.90;;;;;;;;;;5014681;28;20542;-57
2023/07/19 08:53:26;;;;;;;3.53;2.10;;;;;;;;;;5014470;28;20538;-59
2023/07/19 08:55:54;;;;;;;4.70;1.97;;;;;;;;;;5016627;28;21002;-58
2023/07/19 08:58:21;;;;;;;1.83;1.73;;;;;;;;;;5034930;28;20486;-58
2023/07/19 09:00:48;;;;;;;1.83;1.73;;;;;;;;;;5034751;28;20457;-58
2023/07/19 09:03:16;;;;;;;2.10;1.90;;;;;;;;;;5034600;28;20457;-58
2023/07/19 09:05:43;;;;;;;3.07;2.20;;;;;;;;;;5034529;28;20545;-57
2023/07/19 09:08:11;;;;;;;2.90;2.27;;;;;;;;;;5034923;28;20457;-59
2023/07/19 09:10:39;;;;;;;2.80;1.80;;;;;;;;;;5034796;28;20482;-55
2023/07/19 09:13:07;;;;;;;3.63;2.30;;;;;;;;;;5034654;28;20817;-56
2023/07/19 09:15:35;;;;;;;3.83;1.90;;;;;;;;;;5033973;28;20937;-59
2023/07/19 09:18:05;;;;;;;2.43;2.23;;;;;;;;;;5034224;28;20481;-57
2023/07/19 09:20:34;;;;;;;1.70;1.60;;;;;;;;;;5034563;28;20460;-56
2023/07/19 09:23:04;;;;;;;2.23;2.03;;;;;;;;;;5034397;28;20500;-57
2023/07/19 09:25:33;;;;;;;4.50;2.13;;;;;;;;;;5034420;28;20473;-58
2023/07/19 09:28:05;;;;;;;2.13;1.93;;;;;;;;;;5034311;28;20953;-58
2023/07/19 09:30:32;;;;;;;2.20;1.93;;;;;;;;;;5034648;28;20557;-58
2023/07/19 09:33:00;;;;;;;3.03;2.03;;;;;;;;;;5034363;28;20893;-55
2023/07/19 09:35:27;;;;;;;2.30;2.07;;;;;;;;;;5042630;28;20442;-57
2023/07/19 09:37:54;;;;;;;2.50;2.30;;;;;;;;;;5042499;28;20482;-58
2023/07/19 09:40:22;;;;;;;4.77;1.50;;;;;;;;;;5054024;28;20540;-56
2023/07/19 09:42:51;;;;;;;4.13;1.90;;;;;;;;;;5054058;28;20547;-57
2023/07/19 09:45:18;;;;;;;2.37;1.73;;;;;;;;;;5053733;28;21006;-55
2023/07/19 09:47:46;;;;;;;2.50;1.57;;;;;;;;;;5050282;28;20510;-57
2023/07/19 09:50:13;;;;;;;2.47;2.27;;;;;;;;;;5053971;28;20452;-57
2023/07/19 09:52:41;;;;;;;2.13;1.90;;;;;;;;;;5053783;28;20533;-56
2023/07/19 09:55:09;;;;;;;2.10;2.00;;;;;;;;;;5053587;28;20499;-56
2023/07/19 09:57:37;;;;;;;2.13;1.93;;;;;;;;;;5032405;28;20487;-57
2023/07/19 10:00:06;;;;;;;3.30;2.00;;;;;;;;;;5014066;28;20457;-55
2023/07/19 10:02:33;;;;;;;2.40;2.00;;;;;;;;;;5013969;28;20534;-54
2023/07/19 10:05:08;;;;;;;2.73;2.00;;;;;;;;;;5013774;28;20533;-56
2023/07/19 10:07:36;;;;;;;3.03;1.67;;;;;;;;;;5016158;28;20443;-56
2023/07/19 10:10:04;;;;;;;2.07;1.97;;;;;;;;;;5022674;28;20447;-57
2023/07/19 10:12:31;;;;;;;2.20;2.00;;;;;;;;;;5022736;28;20438;-56
2023/07/19 10:15:01;;;;;;;2.67;2.27;;;;;;;;;;5013824;28;20455;-56
2023/07/19 10:17:30;;;;;;;5.00;2.23;;;;;;;;;;5013627;28;20883;-57
2023/07/19 10:19:58;;;;;;;2.37;2.10;;;;;;;;;;5016138;28;20445;-53
2023/07/19 10:22:46;;;;;;;2.67;1.90;;;;;;;;;;5023653;28;20493;-59
2023/07/19 10:25:15;;;;;;;5.27;2.17;;;;;;;;;;5022901;28;20818;-55
2023/07/19 10:27:42;;;;;;;3.67;2.30;;;;;;;;;;5021770;28;20455;-58
2023/07/19 10:30:10;;;;;;;2.30;2.10;;;;;;;;;;5033253;28;20891;-57
2023/07/19 10:32:38;;;;;;;2.23;2.00;;;;;;;;;;5033044;28;20493;-60
2023/07/19 10:35:05;;;;;;;5.77;2.27;;;;;;;;;;5033155;28;20456;-57
2023/07/19 10:37:32;;;;;;;2.00;1.80;;;;;;;;;;5032871;28;20568;-58
2023/07/19 10:40:00;;;;;;;2.03;1.83;;;;;;;;;;5019334;28;20803;-58
2023/07/19 10:42:27;;;;;;;3.70;2.00;;;;;;;;;;5013292;28;20524;-58
2023/07/19 10:44:54;;;;;;;2.07;1.87;;;;;;;;;;5013214;28;20454;-57
2023/07/19 10:47:21;;;;;;;2.23;1.60;;;;;;;;;;5013286;28;20498;-57
2023/07/19 10:49:49;;;;;;;3.20;2.00;;;;;;;;;;5013263;28;20481;-58
2023/07/19 10:52:21;;;;;;;2.40;1.80;;;;;;;;;;5013247;28;20482;-59
2023/07/19 10:54:55;;;;;;;2.60;1.80;;;;;;;;;;5013003;28;20977;-58
2023/07/19 10:57:23;;;;;;;4.83;1.77;;;;;;;;;;5012281;28;20866;-59
2023/07/19 10:59:51;;;;;;;2.10;1.90;;;;;;;;;;5012873;28;20513;-58
2023/07/19 11:02:18;;;;;;;2.17;1.97;;;;;;;;;;5029136;28;20454;-59
2023/07/19 11:04:46;;;;;;;3.10;2.03;;;;;;;;;;5018160;28;20474;-58
2023/07/19 11:07:14;;;;;;;2.40;2.20;;;;;;;;;;5023517;28;20538;-60
2023/07/19 11:09:41;;;;;;;2.90;1.90;;;;;;;;;;5025653;28;20452;-59
2023/07/19 11:12:09;;;;;;;2.27;1.93;;;;;;;;;;5015884;28;20446;-61
2023/07/19 11:14:41;;;;;;;2.07;1.80;;;;;;;;;;5028405;28;20922;-58
2023/07/19 11:17:08;;;;;;;2.90;1.80;;;;;;;;;;5021079;28;20450;-55
2023/07/19 11:19:36;;;;;;;2.20;1.97;;;;;;;;;;5020302;28;20537;-54
2023/07/19 11:22:03;;;;;;;2.30;2.10;;;;;;;;;;5028561;28;20481;-59
2023/07/19 11:24:38;;;;;;;2.10;1.90;;;;;;;;;;5015846;28;20936;-59
2023/07/19 11:27:06;;;;;;;2.10;2.00;;;;;;;;;;5024398;28;20538;-59
2023/07/19 11:29:33;;;;;;;6.23;1.97;;;;;;;;;;5024396;28;20450;-59
2023/07/19 11:32:18;;;;;;;1.97;1.87;;;;;;;;;;5016714;28;20459;-58
2023/07/19 11:34:47;;;;;;;1.70;1.60;;;;;;;;;;5017734;28;20927;-58
2023/07/19 11:37:17;;;;;;;2.20;2.10;;;;;;;;;;5022913;28;20516;-56
2023/07/19 11:39:47;;;;;;;9.00;2.23;;;;;;;;;;5025988;28;20465;-57
2023/07/19 11:42:14;;;;;;;4.03;2.20;;;;;;;;;;5015626;28;21014;-56
2023/07/19 11:44:46;;;;;;;4.77;2.10;;;;;;;;;;5027465;28;20450;-56
2023/07/19 11:47:13;;;;;;;5.47;2.23;;;;;;;;;;5021561;28;21051;-59
2023/07/19 11:49:40;;;;;;;4.93;2.20;;;;;;;;;;5019305;28;20533;-56
2023/07/19 11:52:09;;;;;;;3.10;2.00;;;;;;;;;;5028158;28;20449;-57
2023/07/19 11:54:36;;;;;;;2.60;1.53;;;;;;;;;;5016269;28;20845;-58
2023/07/19 11:57:05;;;;;;;8.67;2.70;;;;;;;;;;5024088;28;20466;-58
2023/07/19 11:59:32;;;;;;;3.37;1.73;;;;;;;;;;5020085;28;21026;-59
2023/07/19 12:02:00;;;;;;;4.07;1.83;;;;;;;;;;5011929;28;20453;-58
2023/07/19 12:04:28;;;;;;;3.23;1.97;;;;;;;;;;5011720;28;20446;-58
2023/07/19 12:06:55;;;;;;;1.87;1.73;;;;;;;;;;5011714;28;20938;-57
2023/07/19 12:09:22;;;;;;;3.83;1.60;;;;;;;;;;5012547;28;20453;-58
2023/07/19 12:11:49;;;;;;;3.30;1.70;;;;;;;;;;5015753;28;20446;-58
2023/07/19 12:14:17;;;;;;;2.10;1.60;;;;;;;;;;5015614;28;20473;-58
2023/07/19 12:16:44;;;;;;;2.93;2.10;;;;;;;;;;5015838;28;20486;-58
2023/07/19 12:19:11;;;;;;;2.00;1.80;;;;;;;;;;5015659;28;20474;-58
2023/07/19 12:21:39;;;;;;;2.63;2.17;;;;;;;;;;5015399;28;20492;-58
2023/07/19 12:24:06;;;;;;;3.37;1.77;;;;;;;;;;5015234;28;20553;-58
2023/07/19 12:26:33;;;;;;;5.40;2.17;;;;;;;;;;5015226;28;20881;-57
2023/07/19 12:29:00;;;;;;;3.30;1.90;;;;;;;;;;5015378;28;20482;-58
2023/07/19 12:31:29;;;;;;;1.80;1.70;;;;;;;;;;5019235;28;20537;-59
2023/07/19 12:33:57;;;;;;;3.40;2.10;;;;;;;;;;5024536;28;20446;-59
2023/07/19 12:36:24;;;;;;;3.30;2.20;;;;;;;;;;5032987;28;20449;-58
2023/07/19 12:38:51;;;;;;;2.93;2.00;;;;;;;;;;5035511;28;20559;-58
2023/07/19 12:41:18;;;;;;;3.40;2.10;;;;;;;;;;5035382;28;21028;-58
2023/07/19 12:43:45;;;;;;;5.80;2.70;;;;;;;;;;5035279;28;20452;-58
2023/07/19 12:46:12;;;;;;;2.00;1.80;;;;;;;;;;5035057;28;20480;-58
2023/07/19 12:48:40;;;;;;;1.63;1.53;;;;;;;;;;5035298;28;20536;-57
2023/07/19 12:51:07;;;;;;;3.23;2.10;;;;;;;;;;5035162;28;20864;-58
2023/07/19 12:53:35;;;;;;;2.00;1.80;;;;;;;;;;5035209;28;20504;-58
2023/07/19 12:56:01;;;;;;;3.50;2.07;;;;;;;;;;5035000;28;20450;-59
2023/07/19 12:58:30;;;;;;;2.33;2.13;;;;;;;;;;5035015;28;20522;-59
2023/07/19 13:00:57;;;;;;;2.27;2.10;;;;;;;;;;5027855;28;20537;-58
2023/07/19 13:03:24;;;;;;;1.90;1.73;;;;;;;;;;5029565;28;20876;-58
2023/07/19 13:05:52;;;;;;;1.97;1.80;;;;;;;;;;5024859;28;20450;-58
2023/07/19 13:08:19;;;;;;;2.67;1.73;;;;;;;;;;5023509;28;20438;-58
2023/07/19 13:10:46;;;;;;;2.37;2.17;;;;;;;;;;5024938;28;20452;-58
2023/07/19 13:13:13;;;;;;;4.10;1.87;;;;;;;;;;5024751;28;20485;-58
2023/07/19 13:15:40;;;;;;;2.33;2.13;;;;;;;;;;5023475;28;20530;-58
2023/07/19 13:18:07;;;;;;;3.27;2.00;;;;;;;;;;5024668;28;20473;-58
2023/07/19 13:20:34;;;;;;;3.23;1.90;;;;;;;;;;5024449;28;20532;-58
2023/07/19 13:23:03;;;;;;;2.57;2.13;;;;;;;;;;5023187;28;20612;-59
2023/07/19 13:25:30;;;;;;;3.57;2.20;;;;;;;;;;5024052;28;20545;-58
2023/07/19 13:27:56;;;;;;;2.60;1.90;;;;;;;;;;5025090;28;20473;-58
2023/07/19 13:30:23;;;;;;;2.30;1.77;;;;;;;;;;5024052;28;20531;-59
2023/07/19 13:32:50;;;;;;;3.03;2.07;;;;;;;;;;5023403;28;20532;-59
2023/07/19 13:35:17;;;;;;;2.40;1.60;;;;;;;;;;5024953;28;20544;-59
2023/07/19 13:37:44;;;;;;;2.80;2.13;;;;;;;;;;5014386;28;20555;-57
2023/07/19 13:40:13;;;;;;;2.50;2.30;;;;;;;;;;5022120;28;20541;-57
2023/07/19 13:42:40;;;;;;;2.40;1.73;;;;;;;;;;5034437;28;21011;-57
2023/07/19 13:45:08;;;;;;;1.67;1.57;;;;;;;;;;5034183;28;20453;-59
2023/07/19 13:47:35;;;;;;;2.63;2.00;;;;;;;;;;5034095;28;20959;-58
2023/07/19 13:50:02;;;;;;;3.70;2.03;;;;;;;;;;5034054;28;20444;-58
2023/07/19 13:52:28;;;;;;;3.03;1.97;;;;;;;;;;5033970;28;20481;-57
2023/07/19 13:54:55;;;;;;;4.27;2.00;;;;;;;;;;5033896;28;20452;-57
2023/07/19 13:57:24;;;;;;;2.30;2.10;;;;;;;;;;5033833;28;20509;-58
2023/07/19 13:59:51;;;;;;;3.37;2.30;;;;;;;;;;5033785;28;20889;-57
2023/07/19 14:02:18;;;;;;;2.27;1.90;;;;;;;;;;5033876;28;20504;-57
2023/07/19 14:04:45;;;;;;;1.97;1.87;;;;;;;;;;5033859;28;20561;-58
2023/07/19 14:07:12;;;;;;;2.17;1.97;;;;;;;;;;5033674;28;20538;-58
2023/07/19 14:09:39;;;;;;;2.40;2.20;;;;;;;;;;5033904;28;20541;-57
2023/07/19 14:12:06;;;;;;;2.03;1.93;;;;;;;;;;5033771;28;20921;-57
2023/07/19 14:14:34;;;;;;;1.90;1.80;;;;;;;;;;5033850;28;20532;-58
2023/07/19 14:17:01;;;;;;;2.50;1.80;;;;;;;;;;5033604;28;20813;-57
2023/07/19 14:19:28;;;;;;;3.30;2.10;;;;;;;;;;5033420;28;20477;-57
2023/07/19 14:21:55;;;;;;;2.77;2.33;;;;;;;;;;5033302;28;20512;-58
2023/07/19 14:24:22;;;;;;;3.87;2.10;;;;;;;;;;5033561;28;20457;-57
2023/07/19 14:26:49;;;;;;;2.33;2.13;;;;;;;;;;5033469;28;20449;-58
2023/07/19 14:29:16;;;;;;;2.20;2.00;;;;;;;;;;5033379;28;20464;-58
2023/07/19 14:31:45;;;;;;;2.63;2.10;;;;;;;;;;5032710;28;20892;-58
2023/07/19 14:34:12;;;;;;;2.47;1.97;;;;;;;;;;5032909;28;20995;-58
2023/07/19 14:36:39;;;;;;;1.90;1.70;;;;;;;;;;5033331;28;20450;-57
2023/07/19 14:39:06;;;;;;;2.50;1.83;;;;;;;;;;5033214;28;20576;-58
2023/07/19 14:41:33;;;;;;;5.70;1.80;;;;;;;;;;5033005;28;20514;-58
2023/07/19 14:44:00;;;;;;;1.80;1.70;;;;;;;;;;5033312;28;20454;-58